sensor_id;sensor_type;location;lat;lon;timestamp;P1;durP1;ratioP1;P2;durP2;ratioP2
70675;SDS011;59069;52.242;20.900;2023-04-25T00:01:37;20.30;;;11.50;;
70675;SDS011;59069;52.242;20.900;2023-04-25T00:04:03;16.77;;;10.57;;
70675;SDS011;59069;52.242;20.900;2023-04-25T00:06:31;17.80;;;11.45;;
70675;SDS011;59069;52.242;20.900;2023-04-25T00:08:57;16.60;;;10.77;;
70675;SDS011;59069;52.242;20.900;2023-04-25T00:11:23;21.50;;;10.60;;
70675;SDS011;59069;52.242;20.900;2023-04-25T00:13:49;18.67;;;11.17;;
70675;SDS011;59069;52.242;20.900;2023-04-25T00:16:17;18.00;;;11.63;;
70675;SDS011;59069;52.242;20.900;2023-04-25T00:18:43;18.52;;;11.73;;
70675;SDS011;59069;52.242;20.900;2023-04-25T00:21:11;20.77;;;11.67;;
70675;SDS011;59069;52.242;20.900;2023-04-25T00:23:36;19.08;;;11.90;;
70675;SDS011;59069;52.242;20.900;2023-04-25T00:26:03;18.60;;;11.98;;
70675;SDS011;59069;52.242;20.900;2023-04-25T00:28:29;16.80;;;12.00;;
70675;SDS011;59069;52.242;20.900;2023-04-25T00:30:55;19.13;;;12.07;;
70675;SDS011;59069;52.242;20.900;2023-04-25T00:33:20;20.83;;;11.47;;
70675;SDS011;59069;52.242;20.900;2023-04-25T00:35:46;20.30;;;12.47;;
70675;SDS011;59069;52.242;20.900;2023-04-25T00:38:11;21.45;;;12.77;;
70675;SDS011;59069;52.242;20.900;2023-04-25T00:40:37;18.60;;;11.87;;
70675;SDS011;59069;52.242;20.900;2023-04-25T00:43:02;17.40;;;11.63;;
70675;SDS011;59069;52.242;20.900;2023-04-25T00:45:28;18.08;;;11.52;;
70675;SDS011;59069;52.242;20.900;2023-04-25T00:47:54;19.93;;;12.27;;
70675;SDS011;59069;52.242;20.900;2023-04-25T00:50:20;22.27;;;12.63;;
70675;SDS011;59069;52.242;20.900;2023-04-25T00:52:46;20.07;;;11.80;;
70675;SDS011;59069;52.242;20.900;2023-04-25T00:55:11;17.05;;;11.50;;
70675;SDS011;59069;52.242;20.900;2023-04-25T00:57:38;21.23;;;12.27;;
70675;SDS011;59069;52.242;20.900;2023-04-25T01:00:04;19.77;;;11.47;;
70675;SDS011;59069;52.242;20.900;2023-04-25T01:02:32;21.40;;;13.10;;
70675;SDS011;59069;52.242;20.900;2023-04-25T01:04:58;19.58;;;12.25;;
70675;SDS011;59069;52.242;20.900;2023-04-25T01:07:24;19.92;;;12.20;;
70675;SDS011;59069;52.242;20.900;2023-04-25T01:09:51;20.80;;;12.70;;
70675;SDS011;59069;52.242;20.900;2023-04-25T01:12:17;19.77;;;12.25;;
70675;SDS011;59069;52.242;20.900;2023-04-25T01:14:43;20.02;;;11.77;;
70675;SDS011;59069;52.242;20.900;2023-04-25T01:17:09;19.37;;;12.40;;
70675;SDS011;59069;52.242;20.900;2023-04-25T01:19:34;24.20;;;12.02;;
70675;SDS011;59069;52.242;20.900;2023-04-25T01:22:00;20.27;;;12.45;;
70675;SDS011;59069;52.242;20.900;2023-04-25T01:24:26;21.17;;;12.30;;
70675;SDS011;59069;52.242;20.900;2023-04-25T01:26:52;19.13;;;11.13;;
70675;SDS011;59069;52.242;20.900;2023-04-25T01:29:21;18.75;;;11.32;;
70675;SDS011;59069;52.242;20.900;2023-04-25T01:31:49;18.83;;;12.30;;
70675;SDS011;59069;52.242;20.900;2023-04-25T01:34:17;17.93;;;10.93;;
70675;SDS011;59069;52.242;20.900;2023-04-25T01:36:42;20.90;;;12.00;;
70675;SDS011;59069;52.242;20.900;2023-04-25T01:39:08;18.50;;;10.53;;
70675;SDS011;59069;52.242;20.900;2023-04-25T01:41:34;20.23;;;11.07;;
70675;SDS011;59069;52.242;20.900;2023-04-25T01:43:59;20.50;;;12.03;;
70675;SDS011;59069;52.242;20.900;2023-04-25T01:46:26;18.67;;;11.40;;
70675;SDS011;59069;52.242;20.900;2023-04-25T01:48:52;18.95;;;10.63;;
70675;SDS011;59069;52.242;20.900;2023-04-25T01:51:17;18.33;;;10.40;;
70675;SDS011;59069;52.242;20.900;2023-04-25T01:53:43;19.27;;;11.40;;
70675;SDS011;59069;52.242;20.900;2023-04-25T01:56:08;20.33;;;10.73;;
70675;SDS011;59069;52.242;20.900;2023-04-25T01:58:34;20.38;;;11.35;;
70675;SDS011;59069;52.242;20.900;2023-04-25T02:01:00;18.37;;;10.57;;
70675;SDS011;59069;52.242;20.900;2023-04-25T02:03:25;21.20;;;10.77;;
70675;SDS011;59069;52.242;20.900;2023-04-25T02:05:51;18.63;;;10.33;;
70675;SDS011;59069;52.242;20.900;2023-04-25T02:08:16;17.92;;;10.68;;
70675;SDS011;59069;52.242;20.900;2023-04-25T02:10:43;20.00;;;10.75;;
70675;SDS011;59069;52.242;20.900;2023-04-25T02:13:08;19.23;;;10.50;;
70675;SDS011;59069;52.242;20.900;2023-04-25T02:15:34;18.30;;;10.25;;
70675;SDS011;59069;52.242;20.900;2023-04-25T02:18:00;16.50;;;9.43;;
70675;SDS011;59069;52.242;20.900;2023-04-25T02:20:25;16.55;;;9.63;;
70675;SDS011;59069;52.242;20.900;2023-04-25T02:22:51;17.98;;;9.80;;
70675;SDS011;59069;52.242;20.900;2023-04-25T02:25:18;15.90;;;8.97;;
70675;SDS011;59069;52.242;20.900;2023-04-25T02:27:45;18.80;;;9.43;;
70675;SDS011;59069;52.242;20.900;2023-04-25T02:30:11;16.05;;;9.43;;
70675;SDS011;59069;52.242;20.900;2023-04-25T02:32:37;16.37;;;9.23;;
70675;SDS011;59069;52.242;20.900;2023-04-25T02:35:03;17.13;;;9.48;;
70675;SDS011;59069;52.242;20.900;2023-04-25T02:37:32;15.55;;;8.55;;
70675;SDS011;59069;52.242;20.900;2023-04-25T02:39:59;20.58;;;9.35;;
70675;SDS011;59069;52.242;20.900;2023-04-25T02:42:25;19.80;;;8.77;;
70675;SDS011;59069;52.242;20.900;2023-04-25T02:44:51;15.82;;;8.55;;
70675;SDS011;59069;52.242;20.900;2023-04-25T02:47:16;16.10;;;8.53;;
70675;SDS011;59069;52.242;20.900;2023-04-25T02:49:42;15.65;;;8.95;;
70675;SDS011;59069;52.242;20.900;2023-04-25T02:52:07;16.47;;;8.33;;
70675;SDS011;59069;52.242;20.900;2023-04-25T02:54:33;17.58;;;8.35;;
70675;SDS011;59069;52.242;20.900;2023-04-25T02:56:59;15.30;;;7.63;;
70675;SDS011;59069;52.242;20.900;2023-04-25T02:59:25;15.20;;;7.50;;
70675;SDS011;59069;52.242;20.900;2023-04-25T03:01:51;12.87;;;7.47;;
70675;SDS011;59069;52.242;20.900;2023-04-25T03:04:16;13.65;;;7.07;;
70675;SDS011;59069;52.242;20.900;2023-04-25T03:06:44;15.27;;;8.07;;
70675;SDS011;59069;52.242;20.900;2023-04-25T03:09:09;13.00;;;7.27;;
70675;SDS011;59069;52.242;20.900;2023-04-25T03:11:35;13.50;;;7.73;;
70675;SDS011;59069;52.242;20.900;2023-04-25T03:14:01;12.93;;;6.97;;
70675;SDS011;59069;52.242;20.900;2023-04-25T03:16:27;16.35;;;7.55;;
70675;SDS011;59069;52.242;20.900;2023-04-25T03:18:52;14.03;;;7.20;;
70675;SDS011;59069;52.242;20.900;2023-04-25T03:21:18;15.43;;;7.63;;
70675;SDS011;59069;52.242;20.900;2023-04-25T03:23:43;16.60;;;8.20;;
70675;SDS011;59069;52.242;20.900;2023-04-25T03:26:09;16.90;;;7.90;;
70675;SDS011;59069;52.242;20.900;2023-04-25T03:28:35;14.80;;;7.70;;
70675;SDS011;59069;52.242;20.900;2023-04-25T03:31:00;16.63;;;7.63;;
70675;SDS011;59069;52.242;20.900;2023-04-25T03:33:26;15.07;;;7.93;;
70675;SDS011;59069;52.242;20.900;2023-04-25T03:35:51;14.30;;;7.37;;
70675;SDS011;59069;52.242;20.900;2023-04-25T03:38:17;13.88;;;7.32;;
70675;SDS011;59069;52.242;20.900;2023-04-25T03:40:42;15.10;;;7.63;;
70675;SDS011;59069;52.242;20.900;2023-04-25T03:43:08;14.20;;;7.43;;
70675;SDS011;59069;52.242;20.900;2023-04-25T03:45:33;15.13;;;7.22;;
70675;SDS011;59069;52.242;20.900;2023-04-25T03:47:59;14.50;;;7.33;;
70675;SDS011;59069;52.242;20.900;2023-04-25T03:50:24;14.57;;;7.80;;
70675;SDS011;59069;52.242;20.900;2023-04-25T03:52:50;14.68;;;7.93;;
70675;SDS011;59069;52.242;20.900;2023-04-25T03:55:15;14.10;;;6.70;;
70675;SDS011;59069;52.242;20.900;2023-04-25T03:57:41;15.60;;;7.50;;
70675;SDS011;59069;52.242;20.900;2023-04-25T04:00:06;13.02;;;6.30;;
70675;SDS011;59069;52.242;20.900;2023-04-25T04:02:32;13.23;;;6.90;;
70675;SDS011;59069;52.242;20.900;2023-04-25T04:04:59;13.50;;;6.60;;
70675;SDS011;59069;52.242;20.900;2023-04-25T04:07:25;13.13;;;6.60;;
70675;SDS011;59069;52.242;20.900;2023-04-25T04:09:51;13.47;;;5.80;;
70675;SDS011;59069;52.242;20.900;2023-04-25T04:12:16;12.52;;;6.30;;
70675;SDS011;59069;52.242;20.900;2023-04-25T04:14:42;13.40;;;6.17;;
70675;SDS011;59069;52.242;20.900;2023-04-25T04:17:07;10.43;;;5.60;;
70675;SDS011;59069;52.242;20.900;2023-04-25T04:19:33;11.18;;;5.97;;
70675;SDS011;59069;52.242;20.900;2023-04-25T04:21:58;12.67;;;6.27;;
70675;SDS011;59069;52.242;20.900;2023-04-25T04:24:24;12.50;;;5.83;;
70675;SDS011;59069;52.242;20.900;2023-04-25T04:26:49;11.97;;;6.10;;
70675;SDS011;59069;52.242;20.900;2023-04-25T04:29:15;11.35;;;5.43;;
70675;SDS011;59069;52.242;20.900;2023-04-25T04:31:47;12.77;;;5.90;;
70675;SDS011;59069;52.242;20.900;2023-04-25T04:34:16;13.05;;;6.13;;
70675;SDS011;59069;52.242;20.900;2023-04-25T04:36:43;12.07;;;6.20;;
70675;SDS011;59069;52.242;20.900;2023-04-25T04:39:11;12.13;;;6.43;;
70675;SDS011;59069;52.242;20.900;2023-04-25T04:41:37;13.05;;;6.57;;
70675;SDS011;59069;52.242;20.900;2023-04-25T04:44:02;13.32;;;7.15;;
70675;SDS011;59069;52.242;20.900;2023-04-25T04:46:28;12.43;;;6.37;;
70675;SDS011;59069;52.242;20.900;2023-04-25T04:48:55;12.70;;;6.63;;
70675;SDS011;59069;52.242;20.900;2023-04-25T04:51:21;12.77;;;6.68;;
70675;SDS011;59069;52.242;20.900;2023-04-25T04:53:46;13.73;;;6.80;;
70675;SDS011;59069;52.242;20.900;2023-04-25T04:56:12;11.82;;;6.43;;
70675;SDS011;59069;52.242;20.900;2023-04-25T04:58:38;13.07;;;6.77;;
70675;SDS011;59069;52.242;20.900;2023-04-25T05:01:03;13.43;;;7.07;;
70675;SDS011;59069;52.242;20.900;2023-04-25T05:03:29;12.18;;;6.65;;
70675;SDS011;59069;52.242;20.900;2023-04-25T05:05:55;13.07;;;6.88;;
70675;SDS011;59069;52.242;20.900;2023-04-25T05:08:21;13.00;;;7.50;;
70675;SDS011;59069;52.242;20.900;2023-04-25T05:10:46;13.20;;;7.40;;
70675;SDS011;59069;52.242;20.900;2023-04-25T05:13:12;12.17;;;6.77;;
70675;SDS011;59069;52.242;20.900;2023-04-25T05:15:37;12.18;;;6.70;;
70675;SDS011;59069;52.242;20.900;2023-04-25T05:18:02;11.90;;;7.10;;
70675;SDS011;59069;52.242;20.900;2023-04-25T05:20:28;12.53;;;6.97;;
70675;SDS011;59069;52.242;20.900;2023-04-25T05:22:54;12.52;;;7.05;;
70675;SDS011;59069;52.242;20.900;2023-04-25T05:25:19;12.63;;;6.80;;
70675;SDS011;59069;52.242;20.900;2023-04-25T05:27:45;11.95;;;6.68;;
70675;SDS011;59069;52.242;20.900;2023-04-25T05:30:10;12.03;;;7.00;;
70675;SDS011;59069;52.242;20.900;2023-04-25T05:32:36;12.33;;;6.10;;
70675;SDS011;59069;52.242;20.900;2023-04-25T05:35:02;12.43;;;6.20;;
70675;SDS011;59069;52.242;20.900;2023-04-25T05:37:27;10.63;;;6.47;;
70675;SDS011;59069;52.242;20.900;2023-04-25T05:39:55;11.67;;;6.43;;
70675;SDS011;59069;52.242;20.900;2023-04-25T05:42:21;12.57;;;6.30;;
70675;SDS011;59069;52.242;20.900;2023-04-25T05:44:46;14.07;;;7.40;;
70675;SDS011;59069;52.242;20.900;2023-04-25T05:47:12;13.33;;;7.63;;
70675;SDS011;59069;52.242;20.900;2023-04-25T05:49:37;13.98;;;7.25;;
70675;SDS011;59069;52.242;20.900;2023-04-25T05:52:03;12.97;;;7.43;;
70675;SDS011;59069;52.242;20.900;2023-04-25T05:54:28;14.35;;;7.50;;
70675;SDS011;59069;52.242;20.900;2023-04-25T05:56:55;12.37;;;7.57;;
70675;SDS011;59069;52.242;20.900;2023-04-25T05:59:21;13.38;;;7.13;;
70675;SDS011;59069;52.242;20.900;2023-04-25T06:01:47;12.10;;;7.10;;
70675;SDS011;59069;52.242;20.900;2023-04-25T06:04:12;12.10;;;7.00;;
70675;SDS011;59069;52.242;20.900;2023-04-25T06:06:37;12.23;;;7.57;;
70675;SDS011;59069;52.242;20.900;2023-04-25T06:09:03;13.85;;;7.72;;
70675;SDS011;59069;52.242;20.900;2023-04-25T06:11:28;12.53;;;7.70;;
70675;SDS011;59069;52.242;20.900;2023-04-25T06:13:54;13.05;;;7.43;;
70675;SDS011;59069;52.242;20.900;2023-04-25T06:16:20;13.37;;;7.73;;
70675;SDS011;59069;52.242;20.900;2023-04-25T06:18:45;12.90;;;7.83;;
70675;SDS011;59069;52.242;20.900;2023-04-25T06:21:11;12.50;;;7.53;;
70675;SDS011;59069;52.242;20.900;2023-04-25T06:23:36;11.97;;;7.20;;
70675;SDS011;59069;52.242;20.900;2023-04-25T06:26:02;13.90;;;7.23;;
70675;SDS011;59069;52.242;20.900;2023-04-25T06:28:27;11.40;;;6.13;;
70675;SDS011;59069;52.242;20.900;2023-04-25T06:30:52;11.70;;;5.82;;
70675;SDS011;59069;52.242;20.900;2023-04-25T06:33:18;12.73;;;6.10;;
70675;SDS011;59069;52.242;20.900;2023-04-25T06:35:45;10.30;;;5.55;;
70675;SDS011;59069;52.242;20.900;2023-04-25T06:38:10;10.17;;;5.20;;
70675;SDS011;59069;52.242;20.900;2023-04-25T06:40:36;13.77;;;5.97;;
70675;SDS011;59069;52.242;20.900;2023-04-25T06:43:01;14.50;;;6.10;;
70675;SDS011;59069;52.242;20.900;2023-04-25T06:45:26;10.60;;;5.60;;
70675;SDS011;59069;52.242;20.900;2023-04-25T06:47:52;12.80;;;5.63;;
70675;SDS011;59069;52.242;20.900;2023-04-25T06:50:17;10.83;;;5.83;;
70675;SDS011;59069;52.242;20.900;2023-04-25T06:52:43;13.00;;;6.55;;
70675;SDS011;59069;52.242;20.900;2023-04-25T06:55:08;12.87;;;6.27;;
70675;SDS011;59069;52.242;20.900;2023-04-25T06:57:34;12.07;;;6.60;;
70675;SDS011;59069;52.242;20.900;2023-04-25T06:59:59;12.85;;;5.93;;
70675;SDS011;59069;52.242;20.900;2023-04-25T07:02:25;11.67;;;6.43;;
70675;SDS011;59069;52.242;20.900;2023-04-25T07:04:50;10.37;;;5.80;;
70675;SDS011;59069;52.242;20.900;2023-04-25T07:07:16;10.13;;;5.87;;
70675;SDS011;59069;52.242;20.900;2023-04-25T07:09:42;11.90;;;6.38;;
70675;SDS011;59069;52.242;20.900;2023-04-25T07:12:07;12.40;;;5.93;;
70675;SDS011;59069;52.242;20.900;2023-04-25T07:14:33;12.98;;;6.15;;
70675;SDS011;59069;52.242;20.900;2023-04-25T07:16:58;12.37;;;6.30;;
70675;SDS011;59069;52.242;20.900;2023-04-25T07:19:23;11.17;;;6.30;;
70675;SDS011;59069;52.242;20.900;2023-04-25T07:21:51;13.43;;;6.45;;
70675;SDS011;59069;52.242;20.900;2023-04-25T07:24:17;12.63;;;6.55;;
70675;SDS011;59069;52.242;20.900;2023-04-25T07:26:42;13.37;;;5.80;;
70675;SDS011;59069;52.242;20.900;2023-04-25T07:29:08;11.17;;;5.70;;
70675;SDS011;59069;52.242;20.900;2023-04-25T07:31:34;11.00;;;6.10;;
70675;SDS011;59069;52.242;20.900;2023-04-25T07:33:59;12.53;;;6.57;;
70675;SDS011;59069;52.242;20.900;2023-04-25T07:36:24;10.47;;;5.93;;
70675;SDS011;59069;52.242;20.900;2023-04-25T07:38:51;9.43;;;5.53;;
70675;SDS011;59069;52.242;20.900;2023-04-25T07:41:16;12.03;;;5.90;;
70675;SDS011;59069;52.242;20.900;2023-04-25T07:43:42;9.77;;;5.82;;
70675;SDS011;59069;52.242;20.900;2023-04-25T07:46:07;10.43;;;5.13;;
70675;SDS011;59069;52.242;20.900;2023-04-25T07:48:33;10.30;;;5.43;;
70675;SDS011;59069;52.242;20.900;2023-04-25T07:50:58;11.73;;;5.60;;
70675;SDS011;59069;52.242;20.900;2023-04-25T07:53:24;10.00;;;5.55;;
70675;SDS011;59069;52.242;20.900;2023-04-25T07:55:49;10.27;;;5.27;;
70675;SDS011;59069;52.242;20.900;2023-04-25T07:58:15;11.57;;;5.88;;
70675;SDS011;59069;52.242;20.900;2023-04-25T08:00:46;13.73;;;7.22;;
70675;SDS011;59069;52.242;20.900;2023-04-25T08:03:11;9.50;;;4.83;;
70675;SDS011;59069;52.242;20.900;2023-04-25T08:05:37;9.00;;;4.88;;
70675;SDS011;59069;52.242;20.900;2023-04-25T08:08:02;9.17;;;4.10;;
70675;SDS011;59069;52.242;20.900;2023-04-25T08:10:29;12.02;;;5.07;;
70675;SDS011;59069;52.242;20.900;2023-04-25T08:12:54;8.60;;;4.87;;
70675;SDS011;59069;52.242;20.900;2023-04-25T08:15:20;8.70;;;4.93;;
70675;SDS011;59069;52.242;20.900;2023-04-25T08:17:45;8.55;;;4.70;;
70675;SDS011;59069;52.242;20.900;2023-04-25T08:20:11;8.67;;;4.07;;
70675;SDS011;59069;52.242;20.900;2023-04-25T08:22:37;8.68;;;4.03;;
70675;SDS011;59069;52.242;20.900;2023-04-25T08:25:02;9.30;;;3.90;;
70675;SDS011;59069;52.242;20.900;2023-04-25T08:27:28;8.88;;;4.35;;
70675;SDS011;59069;52.242;20.900;2023-04-25T08:29:54;7.77;;;3.97;;
70675;SDS011;59069;52.242;20.900;2023-04-25T08:32:19;8.15;;;3.97;;
70675;SDS011;59069;52.242;20.900;2023-04-25T08:34:46;9.57;;;4.47;;
70675;SDS011;59069;52.242;20.900;2023-04-25T08:37:12;7.80;;;4.25;;
70675;SDS011;59069;52.242;20.900;2023-04-25T08:39:37;9.53;;;4.80;;
70675;SDS011;59069;52.242;20.900;2023-04-25T08:42:04;9.88;;;4.10;;
70675;SDS011;59069;52.242;20.900;2023-04-25T08:44:35;7.63;;;3.87;;
70675;SDS011;59069;52.242;20.900;2023-04-25T08:47:04;7.40;;;3.72;;
70675;SDS011;59069;52.242;20.900;2023-04-25T08:49:34;8.25;;;3.92;;
70675;SDS011;59069;52.242;20.900;2023-04-25T08:52:01;7.45;;;3.72;;
70675;SDS011;59069;52.242;20.900;2023-04-25T08:54:27;10.77;;;4.20;;
70675;SDS011;59069;52.242;20.900;2023-04-25T08:56:53;9.27;;;4.67;;
70675;SDS011;59069;52.242;20.900;2023-04-25T08:59:22;9.18;;;4.35;;
70675;SDS011;59069;52.242;20.900;2023-04-25T09:01:48;7.97;;;4.60;;
70675;SDS011;59069;52.242;20.900;2023-04-25T09:04:15;8.70;;;4.80;;
70675;SDS011;59069;52.242;20.900;2023-04-25T09:06:40;11.02;;;5.78;;
70675;SDS011;59069;52.242;20.900;2023-04-25T09:09:07;13.50;;;6.28;;
70675;SDS011;59069;52.242;20.900;2023-04-25T09:11:35;12.67;;;6.57;;
70675;SDS011;59069;52.242;20.900;2023-04-25T09:17:17;10.90;;;6.57;;
70675;SDS011;59069;52.242;20.900;2023-04-25T09:19:35;11.30;;;6.70;;
70675;SDS011;59069;52.242;20.900;2023-04-25T09:22:04;11.95;;;7.70;;
70675;SDS011;59069;52.242;20.900;2023-04-25T09:27:11;12.20;;;7.45;;
70675;SDS011;59069;52.242;20.900;2023-04-25T09:29:38;15.85;;;8.40;;
70675;SDS011;59069;52.242;20.900;2023-04-25T09:34:42;13.63;;;8.43;;
70675;SDS011;59069;52.242;20.900;2023-04-25T09:37:09;12.10;;;7.53;;
70675;SDS011;59069;52.242;20.900;2023-04-25T09:39:36;13.60;;;8.27;;
70675;SDS011;59069;52.242;20.900;2023-04-25T09:42:03;13.73;;;7.78;;
70675;SDS011;59069;52.242;20.900;2023-04-25T09:44:29;15.40;;;9.13;;
70675;SDS011;59069;52.242;20.900;2023-04-25T09:46:54;13.43;;;8.57;;
70675;SDS011;59069;52.242;20.900;2023-04-25T09:49:20;15.60;;;9.07;;
70675;SDS011;59069;52.242;20.900;2023-04-25T09:51:58;15.27;;;9.50;;
70675;SDS011;59069;52.242;20.900;2023-04-25T09:54:25;14.20;;;8.50;;
70675;SDS011;59069;52.242;20.900;2023-04-25T09:56:51;14.27;;;8.57;;
70675;SDS011;59069;52.242;20.900;2023-04-25T09:59:21;15.38;;;9.27;;
70675;SDS011;59069;52.242;20.900;2023-04-25T10:01:48;16.20;;;9.50;;
70675;SDS011;59069;52.242;20.900;2023-04-25T10:04:16;15.43;;;9.37;;
70675;SDS011;59069;52.242;20.900;2023-04-25T10:06:46;13.55;;;8.60;;
70675;SDS011;59069;52.242;20.900;2023-04-25T10:09:14;13.93;;;8.48;;
70675;SDS011;59069;52.242;20.900;2023-04-25T10:11:40;14.05;;;8.80;;
70675;SDS011;59069;52.242;20.900;2023-04-25T10:14:06;13.20;;;8.50;;
70675;SDS011;59069;52.242;20.900;2023-04-25T10:16:32;14.25;;;8.77;;
70675;SDS011;59069;52.242;20.900;2023-04-25T10:18:58;14.85;;;9.30;;
70675;SDS011;59069;52.242;20.900;2023-04-25T10:21:24;14.50;;;8.87;;
70675;SDS011;59069;52.242;20.900;2023-04-25T10:23:53;15.90;;;9.50;;
70675;SDS011;59069;52.242;20.900;2023-04-25T10:26:19;17.52;;;10.38;;
70675;SDS011;59069;52.242;20.900;2023-04-25T10:28:55;14.23;;;9.27;;
70675;SDS011;59069;52.242;20.900;2023-04-25T10:31:21;16.63;;;9.13;;
70675;SDS011;59069;52.242;20.900;2023-04-25T10:33:47;12.27;;;7.70;;
70675;SDS011;59069;52.242;20.900;2023-04-25T10:36:23;14.00;;;7.40;;
70675;SDS011;59069;52.242;20.900;2023-04-25T10:38:52;17.33;;;8.18;;
70675;SDS011;59069;52.242;20.900;2023-04-25T10:41:18;12.93;;;8.18;;
70675;SDS011;59069;52.242;20.900;2023-04-25T10:43:45;13.48;;;7.57;;
70675;SDS011;59069;52.242;20.900;2023-04-25T10:46:28;12.33;;;8.27;;
70675;SDS011;59069;52.242;20.900;2023-04-25T10:48:57;16.88;;;8.50;;
70675;SDS011;59069;52.242;20.900;2023-04-25T10:51:25;14.43;;;8.48;;
70675;SDS011;59069;52.242;20.900;2023-04-25T10:54:03;13.90;;;8.73;;
70675;SDS011;59069;52.242;20.900;2023-04-25T10:56:37;16.23;;;8.68;;
70675;SDS011;59069;52.242;20.900;2023-04-25T10:59:08;15.57;;;9.17;;
70675;SDS011;59069;52.242;20.900;2023-04-25T11:01:39;14.38;;;8.55;;
70675;SDS011;59069;52.242;20.900;2023-04-25T11:04:24;14.13;;;8.52;;
70675;SDS011;59069;52.242;20.900;2023-04-25T11:09:35;13.88;;;9.70;;
70675;SDS011;59069;52.242;20.900;2023-04-25T11:12:04;13.27;;;8.47;;
70675;SDS011;59069;52.242;20.900;2023-04-25T11:14:30;13.82;;;8.30;;
70675;SDS011;59069;52.242;20.900;2023-04-25T11:16:58;14.05;;;8.90;;
70675;SDS011;59069;52.242;20.900;2023-04-25T11:19:26;13.57;;;8.77;;
70675;SDS011;59069;52.242;20.900;2023-04-25T11:21:56;14.17;;;9.50;;
70675;SDS011;59069;52.242;20.900;2023-04-25T11:24:28;13.65;;;9.43;;
70675;SDS011;59069;52.242;20.900;2023-04-25T11:26:55;13.07;;;8.93;;
70675;SDS011;59069;52.242;20.900;2023-04-25T11:29:23;12.03;;;8.23;;
70675;SDS011;59069;52.242;20.900;2023-04-25T11:31:52;13.87;;;9.00;;
70675;SDS011;59069;52.242;20.900;2023-04-25T11:34:18;12.10;;;8.65;;
70675;SDS011;59069;52.242;20.900;2023-04-25T11:36:44;12.98;;;8.65;;
70675;SDS011;59069;52.242;20.900;2023-04-25T11:39:11;14.00;;;8.63;;
70675;SDS011;59069;52.242;20.900;2023-04-25T11:41:37;14.98;;;8.85;;
70675;SDS011;59069;52.242;20.900;2023-04-25T11:44:03;12.30;;;8.60;;
70675;SDS011;59069;52.242;20.900;2023-04-25T11:46:29;11.82;;;8.45;;
70675;SDS011;59069;52.242;20.900;2023-04-25T11:48:55;11.50;;;7.95;;
70675;SDS011;59069;52.242;20.900;2023-04-25T11:51:22;14.90;;;8.60;;
70675;SDS011;59069;52.242;20.900;2023-04-25T11:53:47;10.63;;;7.30;;
70675;SDS011;59069;52.242;20.900;2023-04-25T11:56:13;11.55;;;7.43;;
70675;SDS011;59069;52.242;20.900;2023-04-25T12:01:49;13.27;;;6.90;;
70675;SDS011;59069;52.242;20.900;2023-04-25T12:04:19;11.55;;;7.03;;
70675;SDS011;59069;52.242;20.900;2023-04-25T12:06:46;11.50;;;5.95;;
70675;SDS011;59069;52.242;20.900;2023-04-25T12:09:13;9.90;;;5.77;;
70675;SDS011;59069;52.242;20.900;2023-04-25T12:12:01;11.23;;;6.57;;
70675;SDS011;59069;52.242;20.900;2023-04-25T12:14:34;10.20;;;5.70;;
70675;SDS011;59069;52.242;20.900;2023-04-25T12:17:01;11.80;;;5.30;;
70675;SDS011;59069;52.242;20.900;2023-04-25T12:19:32;8.02;;;4.82;;
70675;SDS011;59069;52.242;20.900;2023-04-25T12:22:00;8.40;;;4.80;;
70675;SDS011;59069;52.242;20.900;2023-04-25T12:24:28;9.80;;;5.07;;
70675;SDS011;59069;52.242;20.900;2023-04-25T12:27:00;9.57;;;4.97;;
70675;SDS011;59069;52.242;20.900;2023-04-25T12:29:29;8.37;;;4.17;;
70675;SDS011;59069;52.242;20.900;2023-04-25T12:31:56;8.15;;;4.03;;
70675;SDS011;59069;52.242;20.900;2023-04-25T12:34:22;8.63;;;4.05;;
70675;SDS011;59069;52.242;20.900;2023-04-25T12:36:48;8.25;;;4.00;;
70675;SDS011;59069;52.242;20.900;2023-04-25T12:39:15;8.37;;;4.47;;
70675;SDS011;59069;52.242;20.900;2023-04-25T12:41:42;9.10;;;4.43;;
70675;SDS011;59069;52.242;20.900;2023-04-25T12:44:07;9.07;;;4.30;;
70675;SDS011;59069;52.242;20.900;2023-04-25T12:46:33;7.67;;;4.30;;
70675;SDS011;59069;52.242;20.900;2023-04-25T12:48:58;8.83;;;4.47;;
70675;SDS011;59069;52.242;20.900;2023-04-25T12:51:25;8.35;;;4.70;;
70675;SDS011;59069;52.242;20.900;2023-04-25T12:53:52;8.45;;;4.60;;
70675;SDS011;59069;52.242;20.900;2023-04-25T12:56:18;8.97;;;4.83;;
70675;SDS011;59069;52.242;20.900;2023-04-25T12:58:44;9.10;;;4.77;;
70675;SDS011;59069;52.242;20.900;2023-04-25T13:01:09;9.32;;;5.40;;
70675;SDS011;59069;52.242;20.900;2023-04-25T13:03:37;9.20;;;4.80;;
70675;SDS011;59069;52.242;20.900;2023-04-25T13:06:02;9.30;;;4.93;;
70675;SDS011;59069;52.242;20.900;2023-04-25T13:08:28;10.00;;;4.97;;
70675;SDS011;59069;52.242;20.900;2023-04-25T13:10:54;8.00;;;4.68;;
70675;SDS011;59069;52.242;20.900;2023-04-25T13:13:20;9.27;;;4.87;;
70675;SDS011;59069;52.242;20.900;2023-04-25T13:15:45;9.17;;;5.20;;
70675;SDS011;59069;52.242;20.900;2023-04-25T13:18:11;8.20;;;4.83;;
70675;SDS011;59069;52.242;20.900;2023-04-25T13:20:36;9.70;;;5.40;;
70675;SDS011;59069;52.242;20.900;2023-04-25T13:23:02;10.98;;;5.38;;
70675;SDS011;59069;52.242;20.900;2023-04-25T13:25:27;9.23;;;4.77;;
70675;SDS011;59069;52.242;20.900;2023-04-25T13:27:53;8.07;;;4.30;;
70675;SDS011;59069;52.242;20.900;2023-04-25T13:30:18;10.97;;;4.40;;
70675;SDS011;59069;52.242;20.900;2023-04-25T13:32:43;9.05;;;4.88;;
70675;SDS011;59069;52.242;20.900;2023-04-25T13:35:10;10.57;;;4.93;;
70675;SDS011;59069;52.242;20.900;2023-04-25T13:37:37;7.90;;;4.55;;
70675;SDS011;59069;52.242;20.900;2023-04-25T13:40:04;8.75;;;4.82;;
70675;SDS011;59069;52.242;20.900;2023-04-25T13:42:35;9.73;;;4.77;;
70675;SDS011;59069;52.242;20.900;2023-04-25T13:45:01;8.68;;;4.78;;
70675;SDS011;59069;52.242;20.900;2023-04-25T13:47:28;10.25;;;5.13;;
70675;SDS011;59069;52.242;20.900;2023-04-25T13:49:55;9.73;;;5.35;;
70675;SDS011;59069;52.242;20.900;2023-04-25T13:52:21;12.33;;;5.67;;
70675;SDS011;59069;52.242;20.900;2023-04-25T13:54:47;8.10;;;4.47;;
70675;SDS011;59069;52.242;20.900;2023-04-25T13:57:12;9.37;;;4.33;;
70675;SDS011;59069;52.242;20.900;2023-04-25T13:59:38;7.40;;;4.10;;
70675;SDS011;59069;52.242;20.900;2023-04-25T14:02:06;8.77;;;4.40;;
70675;SDS011;59069;52.242;20.900;2023-04-25T14:04:32;7.50;;;4.38;;
70675;SDS011;59069;52.242;20.900;2023-04-25T14:06:58;6.90;;;3.80;;
70675;SDS011;59069;52.242;20.900;2023-04-25T14:09:23;8.93;;;4.65;;
70675;SDS011;59069;52.242;20.900;2023-04-25T14:11:53;8.05;;;4.20;;
70675;SDS011;59069;52.242;20.900;2023-04-25T14:14:20;10.40;;;4.63;;
70675;SDS011;59069;52.242;20.900;2023-04-25T14:16:46;8.27;;;4.10;;
70675;SDS011;59069;52.242;20.900;2023-04-25T14:19:16;8.65;;;4.05;;
70675;SDS011;59069;52.242;20.900;2023-04-25T14:21:42;8.73;;;4.20;;
70675;SDS011;59069;52.242;20.900;2023-04-25T14:24:08;8.33;;;4.57;;
70675;SDS011;59069;52.242;20.900;2023-04-25T14:26:34;9.02;;;4.10;;
70675;SDS011;59069;52.242;20.900;2023-04-25T14:29:06;11.13;;;4.88;;
70675;SDS011;59069;52.242;20.900;2023-04-25T14:31:33;9.38;;;4.55;;